createdAt,value
2022-11-10T00:01:10.013Z,100854.22
2022-11-10T00:03:38.986Z,100846.41
2022-11-10T00:06:07.349Z,100852.44
2022-11-10T00:08:33.977Z,100842.97
2022-11-10T00:11:07.388Z,100848.75
2022-11-10T00:13:56.214Z,100851.16
2022-11-10T00:16:41.422Z,100852.91
2022-11-10T00:19:07.876Z,100863.16
2022-11-10T00:21:34.298Z,100859.28
2022-11-10T00:24:00.741Z,100862.81
2022-11-10T00:26:27.134Z,100871.06
2022-11-10T00:28:55.075Z,100869.44
2022-11-10T00:31:21.481Z,100880.78
2022-11-10T00:33:47.950Z,100869.75
2022-11-10T00:36:14.404Z,100873.41
2022-11-10T00:38:40.805Z,100878.41
2022-11-10T00:41:07.335Z,100874.94
2022-11-10T00:43:34.403Z,100876.50
2022-11-10T00:46:01.145Z,100882.03
2022-11-10T00:48:27.609Z,100879.13
2022-11-10T00:50:53.999Z,100878.09
2022-11-10T00:53:20.821Z,100881.78
2022-11-10T00:55:48.649Z,100885.22
2022-11-10T00:58:15.177Z,100882.31
2022-11-10T01:00:42.228Z,100901.34
2022-11-10T01:03:14.049Z,100897.94
2022-11-10T01:05:40.880Z,100898.22
2022-11-10T01:08:07.646Z,100896.16
2022-11-10T01:10:34.443Z,100900.31
2022-11-10T01:13:00.884Z,100904.69
2022-11-10T01:15:28.205Z,100899.84
2022-11-10T01:17:56.316Z,100896.03
2022-11-10T01:20:24.047Z,100907.59
2022-11-10T01:22:50.566Z,100904.44
2022-11-10T01:25:17.177Z,100902.47
2022-11-10T01:27:43.634Z,100910.13
2022-11-10T01:30:10.456Z,100912.44
2022-11-10T01:32:36.928Z,100916.50
2022-11-10T01:35:03.447Z,100918.41
2022-11-10T01:37:29.981Z,100919.16
2022-11-10T01:39:56.536Z,100928.59
2022-11-10T01:42:44.088Z,100932.75
2022-11-10T01:45:22.462Z,100931.31
2022-11-10T01:47:55.297Z,100934.00
2022-11-10T01:54:15.607Z,100944.72
2022-11-10T01:56:50.572Z,100944.28
2022-11-10T01:59:24.103Z,100950.03
2022-11-10T02:01:53.651Z,100952.63
2022-11-10T02:04:21.234Z,100959.44
2022-11-10T02:07:25.470Z,100956.81
2022-11-10T02:09:53.661Z,100960.38
2022-11-10T02:12:36.975Z,100958.72
2022-11-10T02:15:10.535Z,100957.78
2022-11-10T02:17:37.253Z,100965.38
2022-11-10T02:20:07.969Z,100970.22
2022-11-10T02:22:34.383Z,100972.00
2022-11-10T02:25:00.925Z,100976.53
2022-11-10T02:27:27.571Z,100972.84
2022-11-10T02:29:54.033Z,100976.88
2022-11-10T02:32:20.432Z,100982.75
2022-11-10T02:34:46.857Z,100983.75
2022-11-10T02:37:13.283Z,100984.59
2022-11-10T02:39:39.708Z,100982.03
2022-11-10T02:42:10.356Z,100981.91
2022-11-10T02:44:40.458Z,100988.34
2022-11-10T02:47:07.473Z,100988.63
2022-11-10T02:49:33.969Z,100989.72
2022-11-10T02:52:00.443Z,100987.97
2022-11-10T02:54:26.858Z,100993.47
2022-11-10T02:56:53.303Z,100997.28
2022-11-10T02:59:19.938Z,101004.34
2022-11-10T03:01:46.395Z,100999.81
2022-11-10T03:04:13.053Z,101001.59
2022-11-10T03:06:39.526Z,101011.34
2022-11-10T03:09:06.016Z,101006.66
2022-11-10T03:11:32.701Z,101010.09
2022-11-10T03:14:01.829Z,101019.69
2022-11-10T03:16:29.233Z,101021.47
2022-11-10T03:18:55.751Z,101033.47
2022-11-10T03:21:22.298Z,101033.75
2022-11-10T03:23:48.729Z,101031.88
2022-11-10T03:26:15.158Z,101042.81
2022-11-10T03:28:41.573Z,101051.25
2022-11-10T03:31:07.984Z,101052.97
2022-11-10T03:33:35.508Z,101058.09
2022-11-10T03:36:02.042Z,101066.56
2022-11-10T03:38:28.417Z,101071.13
2022-11-10T03:41:18.335Z,101068.72
2022-11-10T03:43:41.237Z,101069.81
2022-11-10T03:46:08.379Z,101073.50
2022-11-10T03:48:34.936Z,101072.03
2022-11-10T03:51:01.470Z,101075.72
2022-11-10T03:53:27.861Z,101075.88
2022-11-10T03:55:54.274Z,101083.03
2022-11-10T03:58:20.708Z,101085.41
2022-11-10T04:00:47.659Z,101088.94
2022-11-10T04:03:14.181Z,101092.13
2022-11-10T04:05:59.416Z,101090.69
2022-11-10T04:08:44.360Z,101090.81
2022-11-10T04:11:10.882Z,101095.50
2022-11-10T04:13:55.980Z,101098.06
2022-11-10T04:16:22.419Z,101107.50
2022-11-10T04:18:48.858Z,101111.47
2022-11-10T04:21:15.383Z,101107.78
2022-11-10T04:23:41.799Z,101119.50
2022-11-10T04:26:28.573Z,101118.78
2022-11-10T04:28:57.583Z,101118.63
2022-11-10T04:31:25.330Z,101132.59
2022-11-10T04:33:52.194Z,101132.00
2022-11-10T04:36:21.422Z,101140.91
2022-11-10T04:38:48.155Z,101142.34
2022-11-10T04:41:15.255Z,101145.44
2022-11-10T04:43:42.537Z,101145.44
2022-11-10T04:46:16.888Z,101142.22
2022-11-10T04:48:43.385Z,101143.59
2022-11-10T04:51:10.147Z,101141.78
2022-11-10T04:53:36.625Z,101146.69
2022-11-10T04:56:03.297Z,101150.38
2022-11-10T04:58:29.836Z,101148.00
2022-11-10T05:00:56.359Z,101146.56
2022-11-10T05:03:23.288Z,101152.03
2022-11-10T05:05:49.884Z,101148.13
2022-11-10T05:08:16.392Z,101159.22
2022-11-10T05:10:43.531Z,101161.88
2022-11-10T05:13:10.360Z,101167.94
2022-11-10T05:15:36.890Z,101164.63
2022-11-10T05:18:03.318Z,101163.34
2022-11-10T05:20:29.709Z,101175.56
2022-11-10T05:23:14.573Z,101177.81
2022-11-10T05:25:42.287Z,101180.94
2022-11-10T05:28:10.784Z,101190.38
2022-11-10T05:30:38.489Z,101193.78
2022-11-10T05:33:05.795Z,101187.16
2022-11-10T05:35:32.880Z,101201.81
2022-11-10T05:37:59.327Z,101209.94
2022-11-10T05:40:25.782Z,101208.97
2022-11-10T05:42:52.971Z,101220.50
2022-11-10T05:45:26.122Z,101223.97
2022-11-10T05:47:52.949Z,101232.19
2022-11-10T05:50:20.551Z,101237.81
2022-11-10T05:52:50.571Z,101239.34
2022-11-10T05:55:19.329Z,101249.28
2022-11-10T05:57:48.125Z,101252.69
2022-11-10T06:00:21.744Z,101257.53
2022-11-10T06:03:18.358Z,101269.09
2022-11-10T06:05:45.625Z,101269.63
2022-11-10T06:08:12.361Z,101271.47
2022-11-10T06:10:39.487Z,101282.59
2022-11-10T06:13:06.584Z,101281.44
2022-11-10T06:15:33.263Z,101282.16
2022-11-10T06:17:59.752Z,101295.34
2022-11-10T06:20:26.718Z,101300.81
2022-11-10T06:23:00.936Z,101305.00
2022-11-10T06:25:31.374Z,101310.34
2022-11-10T06:27:58.129Z,101314.06
2022-11-10T06:30:24.789Z,101319.72
2022-11-10T06:32:51.553Z,101324.72
2022-11-10T06:35:18.713Z,101337.47
2022-11-10T06:37:45.197Z,101335.47
2022-11-10T06:40:14.079Z,101348.44
2022-11-10T06:42:40.672Z,101347.22
2022-11-10T06:45:07.519Z,101357.88
2022-11-10T06:47:34.176Z,101362.22
2022-11-10T06:50:00.635Z,101365.16
2022-11-10T06:52:27.079Z,101378.31
2022-11-10T06:54:53.502Z,101381.13
2022-11-10T06:57:20.022Z,101393.84
2022-11-10T06:59:46.447Z,101391.44
2022-11-10T07:02:16.396Z,101399.53
2022-11-10T07:04:42.855Z,101400.50
2022-11-10T07:07:10.430Z,101407.22
2022-11-10T07:09:37.760Z,101409.81
2022-11-10T07:12:04.986Z,101413.69
2022-11-10T07:14:31.491Z,101424.63
2022-11-10T07:16:57.909Z,101429.78
2022-11-10T07:19:24.312Z,101434.22
2022-11-10T07:21:50.729Z,101428.56
2022-11-10T07:24:17.241Z,101431.50
2022-11-10T07:26:43.628Z,101441.00
2022-11-10T07:29:10.025Z,101445.34
2022-11-10T07:31:36.420Z,101450.91
2022-11-10T07:34:02.850Z,101455.00
2022-11-10T07:36:29.522Z,101461.06
2022-11-10T07:38:56.091Z,101461.41
2022-11-10T07:41:22.691Z,101463.09
2022-11-10T07:43:49.223Z,101468.34
2022-11-10T07:46:15.651Z,101471.91
2022-11-10T07:48:42.027Z,101467.38
2022-11-10T07:51:08.546Z,101477.66
2022-11-10T07:53:34.979Z,101489.16
2022-11-10T07:56:01.417Z,101494.78
2022-11-10T07:58:29.566Z,101487.44
2022-11-10T08:00:56.023Z,101489.09
2022-11-10T08:03:22.768Z,101502.66
2022-11-10T08:05:49.989Z,101499.97
2022-11-10T08:08:16.415Z,101500.03
2022-11-10T08:10:43.334Z,101502.16
2022-11-10T08:13:11.702Z,101508.81
2022-11-10T08:15:38.994Z,101508.75
2022-11-10T08:18:20.442Z,101512.09
2022-11-10T08:20:47.487Z,101510.44
2022-11-10T08:23:14.544Z,101522.72
2022-11-10T08:25:41.545Z,101519.38
2022-11-10T08:28:09.868Z,101517.53
2022-11-10T08:30:38.447Z,101520.28
2022-11-10T08:33:06.472Z,101523.03
2022-11-10T08:35:37.778Z,101522.81
2022-11-10T08:38:13.750Z,101533.72
2022-11-10T08:40:41.058Z,101537.53
2022-11-10T08:43:08.703Z,101536.22
2022-11-10T08:45:36.426Z,101545.28
2022-11-10T08:48:05.712Z,101548.00
2022-11-10T08:50:32.714Z,101550.09
2022-11-10T08:53:04.029Z,101560.84
2022-11-10T08:55:30.613Z,101562.81
2022-11-10T08:58:01.724Z,101574.84
2022-11-10T09:00:28.761Z,101582.03
2022-11-10T09:02:56.479Z,101578.38
2022-11-10T09:05:23.642Z,101588.81
2022-11-10T09:07:50.552Z,101592.91
2022-11-10T09:10:17.130Z,101595.03
2022-11-10T09:12:43.680Z,101598.38
2022-11-10T09:15:11.524Z,101603.16
2022-11-10T09:17:39.475Z,101604.81
2022-11-10T09:20:09.032Z,101615.19
2022-11-10T09:22:36.851Z,101613.84
2022-11-10T09:25:04.365Z,101620.34
2022-11-10T09:27:31.079Z,101614.88
2022-11-10T09:29:57.456Z,101612.53
2022-11-10T09:32:23.964Z,101617.16
2022-11-10T09:34:52.977Z,101616.38
2022-11-10T09:37:19.663Z,101615.81
2022-11-10T09:39:46.132Z,101623.69
2022-11-10T09:42:36.584Z,101624.50
2022-11-10T09:45:15.223Z,101629.03
2022-11-10T09:47:57.151Z,101642.78
2022-11-10T09:50:35.138Z,101640.22
2022-11-10T09:53:02.673Z,101644.66
2022-11-10T09:55:43.534Z,101645.63
2022-11-10T09:58:14.027Z,101639.78
2022-11-10T10:00:46.539Z,101645.84
2022-11-10T10:03:19.713Z,101647.13
2022-11-10T10:06:03.470Z,101637.44
2022-11-10T10:08:49.902Z,101645.56
2022-11-10T10:11:43.697Z,101646.78
2022-11-10T10:14:24.740Z,101648.22
2022-11-10T10:17:03.041Z,101639.88
2022-11-10T10:19:56.693Z,101639.13
2022-11-10T10:22:54.051Z,101648.91
2022-11-10T10:25:24.350Z,101638.13
2022-11-10T10:28:16.780Z,101647.31
2022-11-10T10:30:43.833Z,101649.00
2022-11-10T10:33:15.346Z,101641.94
2022-11-10T10:35:43.378Z,101649.19
2022-11-10T10:38:38.040Z,101653.06
2022-11-10T10:41:24.180Z,101654.56
2022-11-10T10:43:54.518Z,101661.94
2022-11-10T10:46:28.392Z,101658.97
2022-11-10T10:49:27.409Z,101652.69
2022-11-10T10:52:16.256Z,101655.53
2022-11-10T10:54:43.575Z,101669.72
2022-11-10T10:57:29.304Z,101670.75
2022-11-10T11:00:31.099Z,101674.78
2022-11-10T11:03:26.157Z,101666.53
2022-11-10T11:06:03.395Z,101664.47
2022-11-10T11:08:29.855Z,101673.97
2022-11-10T11:10:56.399Z,101670.09
2022-11-10T11:13:27.603Z,101665.75
2022-11-10T11:16:12.851Z,101659.22
2022-11-10T11:18:40.291Z,101660.53
2022-11-10T11:21:42.761Z,101664.03
2022-11-10T11:24:09.122Z,101662.97
2022-11-10T11:26:46.392Z,101667.47
2022-11-10T11:29:18.645Z,101669.16
2022-11-10T11:31:57.637Z,101673.22
2022-11-10T11:34:41.717Z,101662.50
2022-11-10T11:37:11.989Z,101673.16
2022-11-10T11:39:56.873Z,101679.66
2022-11-10T11:42:33.206Z,101674.13
2022-11-10T11:45:26.353Z,101672.81
2022-11-10T11:48:19.800Z,101673.31
2022-11-10T11:50:55.297Z,101676.78
2022-11-10T11:53:27.760Z,101692.06
2022-11-10T11:55:58.742Z,101687.59
2022-11-10T11:58:45.038Z,101681.31
2022-11-10T12:01:40.851Z,101680.81
2022-11-10T12:04:25.135Z,101687.59
2022-11-10T12:07:22.786Z,101677.19
2022-11-10T12:09:54.780Z,101676.88
2022-11-10T12:12:30.327Z,101672.38
2022-11-10T12:15:40.415Z,101662.72
2022-11-10T12:18:33.628Z,101661.88
2022-11-10T12:21:37.745Z,101669.28
2022-11-10T12:24:12.981Z,101682.19
2022-11-10T12:26:53.851Z,101689.88
2022-11-10T12:29:43.832Z,101689.94
2022-11-10T12:32:17.531Z,101685.72
2022-11-10T12:34:49.743Z,101692.78
2022-11-10T12:37:27.809Z,101697.84
2022-11-10T12:40:01.546Z,101704.00
2022-11-10T12:42:29.693Z,101699.31
2022-11-10T12:44:59.591Z,101715.81
2022-11-10T12:47:30.472Z,101709.50
2022-11-10T12:50:09.339Z,101714.91
2022-11-10T12:52:50.476Z,101723.66
2022-11-10T12:55:16.987Z,101730.84
2022-11-10T12:57:43.975Z,101727.75
2022-11-10T13:00:26.694Z,101731.66
2022-11-10T13:02:55.625Z,101730.13
2022-11-10T13:05:34.128Z,101737.91
2022-11-10T13:08:17.638Z,101728.03
2022-11-10T13:10:56.469Z,101737.84
2022-11-10T13:13:24.114Z,101732.06
2022-11-10T13:15:56.597Z,101739.28
2022-11-10T13:18:23.283Z,101739.59
2022-11-10T13:20:56.984Z,101744.00
2022-11-10T13:23:24.671Z,101737.84
2022-11-10T13:26:00.760Z,101743.69
2022-11-10T13:28:45.961Z,101742.00
2022-11-10T13:31:27.520Z,101748.75
2022-11-10T13:34:02.987Z,101752.53
2022-11-10T13:36:47.798Z,101746.56
2022-11-10T13:39:20.277Z,101754.09
2022-11-10T13:41:51.148Z,101762.47
2022-11-10T13:44:35.708Z,101771.00
2022-11-10T13:47:08.409Z,101761.75
2022-11-10T13:49:50.011Z,101769.44
2022-11-10T13:52:47.038Z,101755.75
2022-11-10T13:55:39.150Z,101763.34
2022-11-10T13:58:11.320Z,101761.63
2022-11-10T14:00:38.224Z,101762.81
2022-11-10T14:03:07.290Z,101761.25
2022-11-10T14:05:41.418Z,101769.84
2022-11-10T14:08:16.733Z,101772.88
2022-11-10T14:11:02.286Z,101786.13
2022-11-10T14:13:41.329Z,101786.34
2022-11-10T14:16:21.204Z,101781.84
2022-11-10T14:19:15.955Z,101789.16
2022-11-10T14:21:48.499Z,101800.84
2022-11-10T14:24:42.802Z,101801.44
2022-11-10T14:27:16.003Z,101805.41
2022-11-10T14:29:43.025Z,101809.34
2022-11-10T14:32:20.187Z,101812.63
2022-11-10T14:34:51.753Z,101812.91
2022-11-10T14:37:23.260Z,101811.06
2022-11-10T14:40:01.229Z,101817.47
2022-11-10T14:42:32.530Z,101812.47
2022-11-10T14:45:16.756Z,101822.38
2022-11-10T14:47:43.199Z,101831.59
2022-11-10T14:50:16.063Z,101833.72
2022-11-10T14:52:45.231Z,101831.38
2022-11-10T14:55:24.924Z,101836.59
2022-11-10T14:58:03.753Z,101843.69
2022-11-10T15:00:35.576Z,101845.66
2022-11-10T15:03:03.445Z,101856.41
2022-11-10T15:05:30.709Z,101855.84
2022-11-10T15:07:58.615Z,101859.38
2022-11-10T15:10:44.081Z,101855.56
2022-11-10T15:13:13.250Z,101870.28
2022-11-10T15:15:41.117Z,101868.72
2022-11-10T15:18:24.719Z,101865.03
2022-11-10T15:21:06.344Z,101869.66
2022-11-10T15:23:36.491Z,101871.41
2022-11-10T15:26:04.449Z,101875.34
2022-11-10T15:28:33.595Z,101871.97
2022-11-10T15:31:10.683Z,101877.34
2022-11-10T15:33:39.182Z,101873.03
2022-11-10T15:36:32.029Z,101879.91
2022-11-10T15:39:10.706Z,101887.31
2022-11-10T15:41:47.605Z,101891.47
2022-11-10T15:44:40.277Z,101898.34
2022-11-10T15:47:11.619Z,101897.66
2022-11-10T15:49:40.380Z,101899.19
2022-11-10T15:52:14.821Z,101908.66
2022-11-10T15:54:41.976Z,101892.78
2022-11-10T15:57:13.984Z,101892.28
2022-11-10T15:59:41.490Z,101887.69
2022-11-10T16:02:24.691Z,101886.69
2022-11-10T16:04:59.559Z,101884.69
2022-11-10T16:07:26.595Z,101884.69
2022-11-10T16:09:52.980Z,101882.84
2022-11-10T16:12:21.344Z,101881.09
2022-11-10T16:14:50.942Z,101888.38
2022-11-10T16:17:17.749Z,101881.38
2022-11-10T16:19:45.746Z,101887.00
2022-11-10T16:22:12.745Z,101892.78
2022-11-10T16:24:40.000Z,101892.06
2022-11-10T16:27:11.256Z,101901.03
2022-11-10T16:29:38.057Z,101901.94
2022-11-10T16:32:05.599Z,101904.00
2022-11-10T16:34:32.075Z,101919.00
2022-11-10T16:36:58.722Z,101919.38
2022-11-10T16:39:25.250Z,101938.72
2022-11-10T16:41:51.796Z,101935.59
2022-11-10T16:44:25.101Z,101936.66
2022-11-10T16:46:55.897Z,101944.66
2022-11-10T16:49:34.146Z,101949.47
2022-11-10T16:52:12.063Z,101942.94
2022-11-10T16:54:38.556Z,101946.81
2022-11-10T16:57:13.911Z,101949.41
2022-11-10T16:59:40.480Z,101949.66
2022-11-10T17:02:27.943Z,101948.19
2022-11-10T17:04:55.245Z,101942.88
2022-11-10T17:07:26.642Z,101946.47
2022-11-10T17:09:53.638Z,101946.69
2022-11-10T17:12:20.096Z,101944.16
2022-11-10T17:14:46.764Z,101951.06
2022-11-10T17:17:16.839Z,101956.19
2022-11-10T17:19:43.304Z,101954.50
2022-11-10T17:22:11.127Z,101958.59
2022-11-10T17:24:37.594Z,101972.06
2022-11-10T17:27:04.033Z,101974.47
2022-11-10T17:29:30.468Z,101985.44
2022-11-10T17:31:56.931Z,101988.38
2022-11-10T17:34:23.473Z,101994.06
2022-11-10T17:36:51.187Z,102000.94
2022-11-10T17:39:18.013Z,102008.19
2022-11-10T17:41:44.781Z,102002.97
2022-11-10T17:44:16.112Z,102006.25
2022-11-10T17:46:43.173Z,102010.50
2022-11-10T17:49:09.819Z,102002.78
2022-11-10T17:51:36.902Z,102003.41
2022-11-10T17:54:04.446Z,102005.16
2022-11-10T17:56:31.758Z,102000.00
2022-11-10T17:58:58.347Z,102005.75
2022-11-10T18:01:24.920Z,102011.09
2022-11-10T18:03:51.559Z,102002.72
2022-11-10T18:06:20.197Z,102008.28
2022-11-10T18:08:47.002Z,102013.34
2022-11-10T18:11:16.362Z,102001.00
2022-11-10T18:13:43.858Z,102006.56
2022-11-10T18:16:15.377Z,102011.47
2022-11-10T18:18:41.834Z,101997.09
2022-11-10T18:21:09.416Z,101990.25
2022-11-10T18:23:35.917Z,101999.19
2022-11-10T18:26:04.362Z,101999.59
2022-11-10T18:28:30.836Z,101993.25
2022-11-10T18:30:57.238Z,102002.22
2022-11-10T18:33:23.955Z,102005.06
2022-11-10T18:35:50.652Z,102018.66
2022-11-10T18:38:17.096Z,102016.16
2022-11-10T18:40:43.469Z,102012.00
2022-11-10T18:43:09.906Z,102024.69
2022-11-10T18:45:36.811Z,102028.22
2022-11-10T18:48:03.995Z,102024.81
2022-11-10T18:50:30.780Z,102026.75
2022-11-10T18:52:57.755Z,102027.22
2022-11-10T18:55:24.426Z,102035.19
2022-11-10T18:57:51.104Z,102029.00
2022-11-10T19:00:17.720Z,102035.19
2022-11-10T19:02:44.242Z,102032.47
2022-11-10T19:05:10.762Z,102028.59
2022-11-10T19:07:37.199Z,102033.63
2022-11-10T19:10:04.121Z,102033.84
2022-11-10T19:12:32.169Z,102026.00
2022-11-10T19:14:58.630Z,102027.94
2022-11-10T19:17:25.038Z,102041.81
2022-11-10T19:19:56.246Z,102052.41
2022-11-10T19:22:23.128Z,102050.41
2022-11-10T19:25:07.127Z,102052.06
2022-11-10T19:27:35.201Z,102040.94
2022-11-10T19:30:01.671Z,102046.88
2022-11-10T19:32:29.435Z,102052.03
2022-11-10T19:34:55.891Z,102066.16
2022-11-10T19:37:22.341Z,102068.75
2022-11-10T19:39:48.738Z,102056.53
2022-11-10T19:42:15.282Z,102046.19
2022-11-10T19:44:41.820Z,102040.38
2022-11-10T19:47:08.400Z,102041.22
2022-11-10T19:49:38.326Z,102047.28
2022-11-10T19:52:04.852Z,102056.31
2022-11-10T19:54:31.316Z,102054.00
2022-11-10T19:56:57.807Z,102053.47
2022-11-10T19:59:25.299Z,102051.19
2022-11-10T20:01:51.818Z,102053.03
2022-11-10T20:04:18.604Z,102052.06
2022-11-10T20:06:45.161Z,102054.00
2022-11-10T20:09:11.874Z,102048.16
2022-11-10T20:11:38.448Z,102053.88
2022-11-10T20:14:06.825Z,102047.81
2022-11-10T20:16:33.390Z,102060.47
2022-11-10T20:18:59.876Z,102058.41
2022-11-10T20:21:26.358Z,102071.28
2022-11-10T20:23:56.745Z,102080.09
2022-11-10T20:26:24.382Z,102075.19
2022-11-10T20:28:51.295Z,102083.22
2022-11-10T20:31:21.703Z,102084.25
2022-11-10T20:33:48.958Z,102089.97
2022-11-10T20:36:20.853Z,102100.31
2022-11-10T20:38:48.763Z,102102.13
2022-11-10T20:41:19.732Z,102093.75
2022-11-10T20:43:46.783Z,102098.13
2022-11-10T20:46:33.400Z,102114.31
2022-11-10T20:49:02.830Z,102116.53
2022-11-10T20:51:29.330Z,102119.44
2022-11-10T20:53:56.920Z,102108.34
2022-11-10T20:56:29.234Z,102115.44
2022-11-10T20:58:56.523Z,102117.72
2022-11-10T21:01:23.511Z,102117.09
2022-11-10T21:03:50.235Z,102125.78
2022-11-10T21:06:16.851Z,102128.34
2022-11-10T21:08:43.359Z,102135.41
2022-11-10T21:11:10.238Z,102137.50
2022-11-10T21:13:37.422Z,102141.75
2022-11-10T21:16:06.062Z,102144.78
2022-11-10T21:18:35.334Z,102147.00
2022-11-10T21:21:02.897Z,102137.75
2022-11-10T21:23:29.417Z,102148.69
2022-11-10T21:25:58.087Z,102135.19
2022-11-10T21:28:25.320Z,102127.75
2022-11-10T21:30:52.208Z,102134.44
2022-11-10T21:33:18.877Z,102130.53
2022-11-10T21:35:45.335Z,102133.69
2022-11-10T21:38:13.187Z,102132.59
2022-11-10T21:40:40.253Z,102131.88
2022-11-10T21:43:06.709Z,102133.09
2022-11-10T21:45:33.166Z,102116.16
2022-11-10T21:48:02.505Z,102120.88
2022-11-10T21:50:29.221Z,102117.72
2022-11-10T21:52:55.632Z,102117.31
2022-11-10T21:55:22.180Z,102120.59
2022-11-10T21:57:48.613Z,102121.84
2022-11-10T22:00:15.263Z,102124.13
2022-11-10T22:02:41.669Z,102123.59
2022-11-10T22:05:08.398Z,102112.94
2022-11-10T22:07:34.806Z,102120.78
2022-11-10T22:10:19.768Z,102124.72
2022-11-10T22:13:04.755Z,102134.88
2022-11-10T22:15:49.505Z,102134.50
2022-11-10T22:18:37.250Z,102140.44
2022-11-10T22:21:04.814Z,102139.13
2022-11-10T22:23:49.848Z,102142.03
2022-11-10T22:26:16.334Z,102155.81
2022-11-10T22:28:42.875Z,102154.00
2022-11-10T22:31:10.819Z,102160.47
2022-11-10T22:33:40.332Z,102159.22
2022-11-10T22:36:10.448Z,102157.06
2022-11-10T22:38:39.314Z,102159.38
2022-11-10T22:41:24.832Z,102165.00
2022-11-10T22:44:06.498Z,102168.22
2022-11-10T22:46:41.142Z,102170.16
2022-11-10T22:49:10.141Z,102172.59
2022-11-10T22:51:39.669Z,102172.78
2022-11-10T22:54:10.074Z,102171.28
2022-11-10T22:56:37.053Z,102177.22
2022-11-10T22:59:04.247Z,102171.44
2022-11-10T23:01:31.263Z,102168.03
2022-11-10T23:03:58.453Z,102163.88
2022-11-10T23:06:25.094Z,102165.72
2022-11-10T23:08:52.151Z,102165.00
2022-11-10T23:11:20.883Z,102172.47
2022-11-10T23:13:47.893Z,102173.00
2022-11-10T23:16:19.960Z,102171.75
2022-11-10T23:18:49.551Z,102173.66
2022-11-10T23:21:18.343Z,102174.53
2022-11-10T23:23:46.025Z,102184.56
2022-11-10T23:26:15.272Z,102188.34
2022-11-10T23:28:42.739Z,102190.34
2022-11-10T23:31:19.965Z,102200.94
2022-11-10T23:33:48.370Z,102184.28
2022-11-10T23:36:16.517Z,102196.47
2022-11-10T23:38:43.074Z,102184.81
2022-11-10T23:41:14.513Z,102177.75
2022-11-10T23:43:41.727Z,102181.28
2022-11-10T23:46:08.664Z,102177.66
2022-11-10T23:48:36.329Z,102182.88
2022-11-10T23:51:03.910Z,102192.47
2022-11-10T23:53:30.395Z,102195.19
2022-11-10T23:56:06.105Z,102197.81
2022-11-10T23:58:32.955Z,102197.69
